SAS602 LSZH-EKCH
Flight info
| Callsign | SAS602 |
|---|---|
| Flight time | N/A |
| Altitude | 36000 |
| Route | DEGES Z1 ETAGO DCT HAREM/N0429F370 DCT LOHRE DCT BERXO DCT MAKEL N851 GESKA Z711 MONAK |
| Aircraft | B738/M-SDE2E3FGHIRWXY/LB1 |
Departure
| Time | 2026-05-05 11:46 |
|---|---|
| Airport | Zürich Airport (LSZH) |
Arrival
| Time | N/A |
|---|---|
| Airport | Copenhagen Kastrup Airport (EKCH) |
| Time | Latitude | Longitude | Altitude | Speed | Heading |
|---|---|---|---|---|---|
| 2026-05-05 11:05 | 47.45037 | 8.55972 | 1396 ft | 0 kts | 6° |
| 2026-05-05 11:30 | 47.45018 | 8.55967 | 1403 ft | 4 kts | 17° |
| 2026-05-05 11:31 | 47.44994 | 8.55951 | 1407 ft | 4 kts | 37° |
| 2026-05-05 11:31 | 47.44975 | 8.55924 | 1403 ft | 4 kts | 59° |
| 2026-05-05 11:31 | 47.44964 | 8.55888 | 1407 ft | 4 kts | 76° |
| 2026-05-05 11:31 | 47.44960 | 8.55849 | 1407 ft | 4 kts | 88° |
| 2026-05-05 11:32 | 47.44960 | 8.55809 | 1407 ft | 4 kts | 95° |
| 2026-05-05 11:32 | 47.44963 | 8.55770 | 1407 ft | 4 kts | 95° |
| 2026-05-05 11:32 | 47.44963 | 8.55731 | 1407 ft | 4 kts | 70° |
| 2026-05-05 11:32 | 47.44955 | 8.55715 | 1405 ft | 4 kts | 6° |
| 2026-05-05 11:33 | 47.44928 | 8.55709 | 1404 ft | 4 kts | 11° |
| 2026-05-05 11:33 | 47.44917 | 8.55706 | 1405 ft | 0 kts | 9° |
| 2026-05-05 11:36 | 47.44919 | 8.55704 | 1405 ft | 1 kts | 349° |
| 2026-05-05 11:36 | 47.44952 | 8.55677 | 1403 ft | 10 kts | 334° |
| 2026-05-05 11:37 | 47.45016 | 8.55634 | 1400 ft | 10 kts | 335° |
| 2026-05-05 11:37 | 47.45078 | 8.55591 | 1401 ft | 10 kts | 335° |
| 2026-05-05 11:37 | 47.45139 | 8.55549 | 1402 ft | 10 kts | 335° |
| 2026-05-05 11:37 | 47.45198 | 8.55508 | 1400 ft | 9 kts | 335° |
| 2026-05-05 11:38 | 47.45256 | 8.55469 | 1404 ft | 9 kts | 335° |
| 2026-05-05 11:38 | 47.45313 | 8.55431 | 1400 ft | 9 kts | 335° |
| 2026-05-05 11:38 | 47.45367 | 8.55393 | 1398 ft | 9 kts | 335° |
| 2026-05-05 11:38 | 47.45421 | 8.55356 | 1400 ft | 9 kts | 335° |
| 2026-05-05 11:39 | 47.45480 | 8.55314 | 1402 ft | 11 kts | 335° |
| 2026-05-05 11:39 | 47.45552 | 8.55265 | 1402 ft | 12 kts | 335° |
| 2026-05-05 11:39 | 47.45625 | 8.55216 | 1401 ft | 11 kts | 340° |
| 2026-05-05 11:39 | 47.45678 | 8.55270 | 1397 ft | 11 kts | 86° |
| 2026-05-05 11:40 | 47.45672 | 8.55382 | 1398 ft | 11 kts | 98° |
| 2026-05-05 11:40 | 47.45665 | 8.55490 | 1396 ft | 10 kts | 95° |
| 2026-05-05 11:40 | 47.45657 | 8.55595 | 1396 ft | 10 kts | 96° |
| 2026-05-05 11:40 | 47.45649 | 8.55697 | 1396 ft | 10 kts | 96° |
| 2026-05-05 11:41 | 47.45642 | 8.55797 | 1396 ft | 10 kts | 96° |
| 2026-05-05 11:41 | 47.45636 | 8.55894 | 1396 ft | 9 kts | 95° |
| 2026-05-05 11:41 | 47.45629 | 8.55989 | 1398 ft | 9 kts | 96° |
| 2026-05-05 11:41 | 47.45622 | 8.56091 | 1396 ft | 10 kts | 96° |
| 2026-05-05 11:42 | 47.45615 | 8.56196 | 1403 ft | 10 kts | 96° |
| 2026-05-05 11:42 | 47.45607 | 8.56297 | 1399 ft | 10 kts | 96° |
| 2026-05-05 11:42 | 47.45600 | 8.56396 | 1402 ft | 10 kts | 96° |
| 2026-05-05 11:42 | 47.45593 | 8.56493 | 1396 ft | 9 kts | 96° |
| 2026-05-05 11:43 | 47.45587 | 8.56586 | 1396 ft | 9 kts | 95° |
| 2026-05-05 11:43 | 47.45581 | 8.56678 | 1402 ft | 9 kts | 95° |
| 2026-05-05 11:43 | 47.45574 | 8.56766 | 1399 ft | 9 kts | 96° |
| 2026-05-05 11:43 | 47.45568 | 8.56853 | 1396 ft | 8 kts | 96° |
| 2026-05-05 11:44 | 47.45563 | 8.56937 | 1396 ft | 8 kts | 89° |
| 2026-05-05 11:44 | 47.45587 | 8.57006 | 1406 ft | 8 kts | 36° |
| 2026-05-05 11:44 | 47.45592 | 8.57011 | 1398 ft | 0 kts | 28° |
| 2026-05-05 11:44 | 47.45623 | 8.57024 | 1398 ft | 12 kts | 9° |
| 2026-05-05 11:45 | 47.45669 | 8.56934 | 1398 ft | 20 kts | 275° |
| 2026-05-05 11:45 | 47.45714 | 8.56307 | 1402 ft | 101 kts | 276° |
| 2026-05-05 11:45 | 47.45808 | 8.54925 | 1424 ft | 164 kts | 275° |
| 2026-05-05 11:45 | 47.45935 | 8.53089 | 1900 ft | 193 kts | 274° |
| 2026-05-05 11:46 | 47.46029 | 8.51083 | 2769 ft | 199 kts | 273° |
| 2026-05-05 11:46 | 47.46159 | 8.49057 | 3669 ft | 197 kts | 275° |
| 2026-05-05 11:46 | 47.46122 | 8.47059 | 4517 ft | 198 kts | 251° |
| 2026-05-05 11:46 | 47.45220 | 8.45483 | 4929 ft | 212 kts | 212° |
| 2026-05-05 11:47 | 47.43972 | 8.44264 | 5501 ft | 220 kts | 229° |
| 2026-05-05 11:47 | 47.43371 | 8.42226 | 6256 ft | 221 kts | 256° |
| 2026-05-05 11:47 | 47.42996 | 8.39988 | 6973 ft | 226 kts | 254° |
| 2026-05-05 11:47 | 47.42493 | 8.37807 | 7770 ft | 224 kts | 234° |
| 2026-05-05 11:48 | 47.39789 | 8.36066 | 9223 ft | 227 kts | 173° |
| 2026-05-05 11:48 | 47.38322 | 8.36927 | 9913 ft | 233 kts | 144° |
| 2026-05-05 11:48 | 47.37313 | 8.38830 | 10527 ft | 245 kts | 114° |
| 2026-05-05 11:49 | 47.37080 | 8.41320 | 11091 ft | 257 kts | 83° |
| 2026-05-05 11:49 | 47.37762 | 8.43779 | 11662 ft | 267 kts | 50° |
| 2026-05-05 11:49 | 47.39280 | 8.45330 | 12296 ft | 269 kts | 15° |
| 2026-05-05 11:49 | 47.41078 | 8.46109 | 12985 ft | 272 kts | 25° |
| 2026-05-05 11:50 | 47.42551 | 8.47938 | 13364 ft | 290 kts | 53° |
| 2026-05-05 11:50 | 47.43770 | 8.50464 | 13577 ft | 314 kts | 55° |
| 2026-05-05 11:50 | 47.45061 | 8.53222 | 13775 ft | 340 kts | 60° |
| 2026-05-05 11:50 | 47.45851 | 8.56589 | 13958 ft | 356 kts | 86° |
| 2026-05-05 11:51 | 47.45984 | 8.60185 | 14511 ft | 362 kts | 90° |
| 2026-05-05 11:51 | 47.46080 | 8.63907 | 15254 ft | 363 kts | 90° |
| 2026-05-05 11:51 | 47.46192 | 8.67646 | 16022 ft | 365 kts | 90° |
| 2026-05-05 11:51 | 47.46321 | 8.71404 | 16708 ft | 368 kts | 89° |
| 2026-05-05 11:52 | 47.46461 | 8.75193 | 17416 ft | 371 kts | 89° |
| 2026-05-05 11:52 | 47.46603 | 8.79017 | 18101 ft | 374 kts | 90° |
| 2026-05-05 11:52 | 47.46679 | 8.82862 | 18744 ft | 373 kts | 98° |
| 2026-05-05 11:52 | 47.46223 | 8.86614 | 19351 ft | 371 kts | 107° |
| 2026-05-05 11:53 | 47.45613 | 8.90332 | 19951 ft | 374 kts | 107° |
| 2026-05-05 11:53 | 47.45026 | 8.94061 | 20481 ft | 378 kts | 106° |
| 2026-05-05 11:53 | 47.44474 | 8.97805 | 21045 ft | 381 kts | 105° |
| 2026-05-05 11:53 | 47.43917 | 9.01695 | 21673 ft | 383 kts | 105° |
| 2026-05-05 11:54 | 47.43383 | 9.05500 | 22259 ft | 385 kts | 105° |
| 2026-05-05 11:54 | 47.42837 | 9.09382 | 22815 ft | 388 kts | 105° |
| 2026-05-05 11:54 | 47.42283 | 9.13290 | 23335 ft | 391 kts | 105° |
| 2026-05-05 11:54 | 47.41771 | 9.17217 | 23786 ft | 396 kts | 99° |
| 2026-05-05 11:55 | 47.41970 | 9.21320 | 24171 ft | 410 kts | 79° |
| 2026-05-05 11:55 | 47.43097 | 9.25227 | 24635 ft | 418 kts | 63° |
| 2026-05-05 11:55 | 47.44592 | 9.28917 | 25170 ft | 419 kts | 62° |
| 2026-05-05 11:55 | 47.46086 | 9.32623 | 25603 ft | 421 kts | 63° |
| 2026-05-05 11:56 | 47.47605 | 9.36343 | 25968 ft | 427 kts | 58° |
| 2026-05-05 11:56 | 47.49634 | 9.39603 | 26347 ft | 436 kts | 41° |
| 2026-05-05 11:56 | 47.52203 | 9.42026 | 26799 ft | 443 kts | 26° |
| 2026-05-05 11:56 | 47.55121 | 9.43551 | 27255 ft | 447 kts | 18° |
| 2026-05-05 11:57 | 47.58123 | 9.44806 | 27605 ft | 451 kts | 13° |
| 2026-05-05 11:57 | 47.61241 | 9.45434 | 27931 ft | 455 kts | 2° |
| 2026-05-05 11:57 | 47.64413 | 9.45569 | 28300 ft | 457 kts | 1° |
| 2026-05-05 11:57 | 47.67606 | 9.45670 | 28650 ft | 461 kts | 1° |
| 2026-05-05 11:58 | 47.70824 | 9.45795 | 28988 ft | 464 kts | 2° |
| 2026-05-05 11:58 | 47.74063 | 9.45956 | 29334 ft | 467 kts | 2° |
| 2026-05-05 11:58 | 47.77316 | 9.46139 | 29668 ft | 470 kts | 2° |
| 2026-05-05 11:58 | 47.80590 | 9.46329 | 29986 ft | 472 kts | 2° |
| 2026-05-05 11:59 | 47.83816 | 9.46416 | 30275 ft | 474 kts | 360° |
| 2026-05-05 11:59 | 47.87124 | 9.46398 | 30569 ft | 476 kts | 359° |
| 2026-05-05 11:59 | 47.90440 | 9.46345 | 30853 ft | 478 kts | 359° |
| 2026-05-05 11:59 | 47.93777 | 9.46294 | 31141 ft | 480 kts | 359° |
| 2026-05-05 12:00 | 47.97112 | 9.46259 | 31482 ft | 479 kts | 359° |
| 2026-05-05 12:00 | 48.00445 | 9.46240 | 31888 ft | 478 kts | 359° |
| 2026-05-05 12:00 | 48.03763 | 9.46230 | 32300 ft | 476 kts | 359° |
| 2026-05-05 12:00 | 48.07066 | 9.46223 | 32675 ft | 475 kts | 359° |
| 2026-05-05 12:01 | 48.10368 | 9.46217 | 32995 ft | 475 kts | 359° |
| 2026-05-05 12:01 | 48.13670 | 9.46209 | 33308 ft | 475 kts | 359° |
| 2026-05-05 12:01 | 48.16969 | 9.46200 | 33659 ft | 474 kts | 359° |
| 2026-05-05 12:01 | 48.20261 | 9.46195 | 34000 ft | 472 kts | 359° |
| 2026-05-05 12:02 | 48.23542 | 9.46196 | 34292 ft | 471 kts | 359° |
| 2026-05-05 12:02 | 48.26821 | 9.46197 | 34609 ft | 470 kts | 359° |
| 2026-05-05 12:02 | 48.30090 | 9.46199 | 34910 ft | 469 kts | 359° |
| 2026-05-05 12:02 | 48.33352 | 9.46200 | 35195 ft | 468 kts | 359° |
| 2026-05-05 12:03 | 48.36601 | 9.46201 | 35471 ft | 467 kts | 359° |
| 2026-05-05 12:03 | 48.39853 | 9.46200 | 35734 ft | 466 kts | 359° |
| 2026-05-05 12:03 | 48.43098 | 9.46200 | 35874 ft | 469 kts | 359° |
| 2026-05-05 12:03 | 48.46375 | 9.46199 | 35852 ft | 471 kts | 359° |
| 2026-05-05 12:04 | 48.52916 | 9.46200 | 35839 ft | 467 kts | 359° |
| 2026-05-05 12:04 | 48.59367 | 9.46150 | 35851 ft | 462 kts | 358° |
| 2026-05-05 12:05 | 48.65800 | 9.46071 | 35854 ft | 463 kts | 358° |
| 2026-05-05 12:05 | 48.72241 | 9.46004 | 35855 ft | 463 kts | 358° |
| 2026-05-05 12:06 | 48.78639 | 9.45786 | 35851 ft | 463 kts | 356° |
| 2026-05-05 12:06 | 48.85074 | 9.45416 | 35845 ft | 464 kts | 356° |
| 2026-05-05 12:07 | 48.91534 | 9.45052 | 35843 ft | 464 kts | 356° |
| 2026-05-05 12:07 | 48.98009 | 9.44711 | 35839 ft | 466 kts | 356° |
| 2026-05-05 12:08 | 49.04496 | 9.44379 | 35841 ft | 467 kts | 356° |
| 2026-05-05 12:08 | 49.10999 | 9.44045 | 35838 ft | 468 kts | 356° |
| 2026-05-05 12:09 | 49.17522 | 9.43709 | 35840 ft | 469 kts | 356° |
| 2026-05-05 12:09 | 49.24045 | 9.43372 | 35846 ft | 470 kts | 356° |
| 2026-05-05 12:10 | 49.30588 | 9.43032 | 35842 ft | 471 kts | 356° |
| 2026-05-05 12:10 | 49.37098 | 9.42694 | 35852 ft | 471 kts | 355° |
| 2026-05-05 12:11 | 49.43642 | 9.42353 | 35846 ft | 471 kts | 355° |
| 2026-05-05 12:11 | 49.50183 | 9.42010 | 35849 ft | 470 kts | 355° |
| 2026-05-05 12:12 | 49.56718 | 9.41668 | 35843 ft | 469 kts | 355° |
| 2026-05-05 12:12 | 49.63249 | 9.41476 | 36064 ft | 471 kts | 1° |
| 2026-05-05 12:13 | 49.66510 | 9.41895 | 36370 ft | 469 kts | 4° |
| 2026-05-05 12:13 | 49.69733 | 9.42456 | 36713 ft | 467 kts | 5° |
| 2026-05-05 12:13 | 49.72959 | 9.43054 | 36854 ft | 468 kts | 5° |
| 2026-05-05 12:13 | 49.76208 | 9.43642 | 36844 ft | 471 kts | 5° |
| 2026-05-05 12:14 | 49.82709 | 9.44743 | 36848 ft | 468 kts | 4° |
| 2026-05-05 12:14 | 49.88059 | 9.45604 | 36841 ft | 463 kts | 4° |
| 2026-05-05 12:15 | 49.94440 | 9.46622 | 36837 ft | 461 kts | 4° |
| 2026-05-05 12:15 | 50.00820 | 9.47649 | 36844 ft | 460 kts | 4° |
| 2026-05-05 12:16 | 50.07196 | 9.48710 | 36847 ft | 461 kts | 6° |
| 2026-05-05 12:16 | 50.13506 | 9.50625 | 36846 ft | 463 kts | 11° |
| 2026-05-05 12:17 | 50.19794 | 9.52868 | 36843 ft | 464 kts | 11° |
| 2026-05-05 12:17 | 50.26060 | 9.55065 | 36839 ft | 465 kts | 10° |
| 2026-05-05 12:18 | 50.32386 | 9.57219 | 36844 ft | 466 kts | 10° |
| 2026-05-05 12:18 | 50.38738 | 9.59360 | 36843 ft | 467 kts | 10° |
| 2026-05-05 12:19 | 50.45106 | 9.61512 | 36843 ft | 468 kts | 10° |
| 2026-05-05 12:19 | 50.51477 | 9.63674 | 36855 ft | 469 kts | 9° |
| 2026-05-05 12:20 | 50.57864 | 9.65848 | 36845 ft | 470 kts | 9° |
| 2026-05-05 12:20 | 50.64253 | 9.68029 | 36842 ft | 470 kts | 9° |
| 2026-05-05 12:21 | 50.70637 | 9.70215 | 36833 ft | 469 kts | 9° |
| 2026-05-05 12:21 | 50.77008 | 9.72402 | 36842 ft | 468 kts | 9° |
| 2026-05-05 12:22 | 50.83363 | 9.74590 | 36839 ft | 467 kts | 9° |
| 2026-05-05 12:22 | 50.89714 | 9.76783 | 36835 ft | 466 kts | 9° |
| 2026-05-05 12:23 | 50.96004 | 9.78960 | 36841 ft | 465 kts | 9° |
| 2026-05-05 12:23 | 51.02368 | 9.81169 | 36846 ft | 465 kts | 9° |
| 2026-05-05 12:24 | 51.08636 | 9.83351 | 36845 ft | 464 kts | 9° |
| 2026-05-05 12:24 | 51.14935 | 9.85550 | 36847 ft | 463 kts | 9° |
| 2026-05-05 12:25 | 51.21229 | 9.87753 | 36847 ft | 463 kts | 9° |
| 2026-05-05 12:25 | 51.27428 | 9.90622 | 36863 ft | 465 kts | 16° |
| 2026-05-05 12:26 | 51.33526 | 9.94099 | 36851 ft | 466 kts | 17° |
| 2026-05-05 12:26 | 51.39625 | 9.97605 | 36889 ft | 466 kts | 16° |
| 2026-05-05 12:27 | 51.45745 | 10.01053 | 36860 ft | 466 kts | 16° |
| 2026-05-05 12:27 | 51.51873 | 10.04471 | 36851 ft | 466 kts | 16° |
| 2026-05-05 12:28 | 51.57994 | 10.07884 | 36866 ft | 465 kts | 16° |
| 2026-05-05 12:28 | 51.64097 | 10.11298 | 36873 ft | 464 kts | 15° |
| 2026-05-05 12:29 | 51.70196 | 10.14722 | 36869 ft | 464 kts | 16° |
| 2026-05-05 12:29 | 51.76296 | 10.18156 | 36862 ft | 464 kts | 16° |
| 2026-05-05 12:30 | 51.82383 | 10.21594 | 36873 ft | 464 kts | 16° |
| 2026-05-05 12:30 | 51.88473 | 10.25044 | 36873 ft | 464 kts | 15° |
| 2026-05-05 12:31 | 51.94554 | 10.28499 | 36881 ft | 463 kts | 15° |
| 2026-05-05 12:31 | 52.00626 | 10.31958 | 36875 ft | 462 kts | 16° |
| 2026-05-05 12:32 | 52.06681 | 10.35418 | 36875 ft | 461 kts | 15° |
| 2026-05-05 12:32 | 52.12729 | 10.38882 | 36884 ft | 460 kts | 15° |
| 2026-05-05 12:33 | 52.18748 | 10.42340 | 36885 ft | 460 kts | 15° |
| 2026-05-05 12:33 | 52.24789 | 10.45822 | 36887 ft | 459 kts | 15° |
| 2026-05-05 12:34 | 52.30806 | 10.49299 | 36900 ft | 458 kts | 15° |
| 2026-05-05 12:34 | 52.36819 | 10.52784 | 36885 ft | 458 kts | 15° |
| 2026-05-05 12:35 | 52.42816 | 10.56270 | 36885 ft | 458 kts | 15° |
| 2026-05-05 12:35 | 52.48825 | 10.59773 | 36894 ft | 457 kts | 15° |
| 2026-05-05 12:36 | 52.54829 | 10.63282 | 36909 ft | 458 kts | 15° |
| 2026-05-05 12:36 | 52.60840 | 10.66807 | 36898 ft | 458 kts | 15° |
| 2026-05-05 12:37 | 52.66834 | 10.70333 | 36898 ft | 457 kts | 15° |
| 2026-05-05 12:37 | 52.72815 | 10.73861 | 36902 ft | 456 kts | 15° |
| 2026-05-05 12:38 | 52.78779 | 10.77389 | 36916 ft | 455 kts | 15° |
| 2026-05-05 12:38 | 52.84743 | 10.80926 | 36906 ft | 455 kts | 15° |
| 2026-05-05 12:39 | 52.90657 | 10.84445 | 36910 ft | 455 kts | 15° |
| 2026-05-05 12:39 | 52.96609 | 10.87996 | 36913 ft | 455 kts | 15° |
| 2026-05-05 12:40 | 53.02560 | 10.91558 | 36910 ft | 455 kts | 15° |
| 2026-05-05 12:40 | 53.08514 | 10.95131 | 36921 ft | 455 kts | 15° |
| 2026-05-05 12:41 | 53.14429 | 10.98692 | 36917 ft | 455 kts | 15° |
| 2026-05-05 12:41 | 53.20388 | 11.02289 | 36914 ft | 456 kts | 15° |
| 2026-05-05 12:42 | 53.26353 | 11.05901 | 36918 ft | 457 kts | 15° |
| 2026-05-05 12:42 | 53.32333 | 11.09533 | 36925 ft | 458 kts | 16° |
| 2026-05-05 12:43 | 53.38330 | 11.13185 | 36751 ft | 462 kts | 15° |
| 2026-05-05 12:43 | 53.41367 | 11.15037 | 36326 ft | 464 kts | 15° |
| 2026-05-05 12:43 | 53.44384 | 11.16884 | 35958 ft | 460 kts | 15° |
| 2026-05-05 12:44 | 53.47383 | 11.18724 | 35578 ft | 457 kts | 15° |
| 2026-05-05 12:44 | 53.50367 | 11.20556 | 35155 ft | 455 kts | 15° |
| 2026-05-05 12:44 | 53.53328 | 11.22377 | 34747 ft | 452 kts | 14° |
| 2026-05-05 12:44 | 53.56278 | 11.24192 | 34353 ft | 450 kts | 14° |
| 2026-05-05 12:45 | 53.59204 | 11.25996 | 33957 ft | 447 kts | 14° |
| 2026-05-05 12:45 | 53.62119 | 11.27794 | 33495 ft | 445 kts | 14° |
| 2026-05-05 12:45 | 53.65013 | 11.29583 | 33073 ft | 441 kts | 14° |
| 2026-05-05 12:45 | 53.67882 | 11.31358 | 32671 ft | 438 kts | 14° |
| 2026-05-05 12:46 | 53.70735 | 11.33127 | 32277 ft | 435 kts | 14° |
| 2026-05-05 12:46 | 53.73536 | 11.34865 | 31933 ft | 431 kts | 14° |
| 2026-05-05 12:46 | 53.76341 | 11.36609 | 31551 ft | 428 kts | 14° |
| 2026-05-05 12:46 | 53.79128 | 11.38343 | 31174 ft | 425 kts | 14° |
| 2026-05-05 12:47 | 53.81896 | 11.40068 | 30811 ft | 423 kts | 14° |
| 2026-05-05 12:47 | 53.84653 | 11.41788 | 30443 ft | 421 kts | 14° |
| 2026-05-05 12:47 | 53.87400 | 11.43503 | 30071 ft | 420 kts | 14° |
| 2026-05-05 12:47 | 53.90132 | 11.45212 | 29647 ft | 418 kts | 14° |
| 2026-05-05 12:48 | 53.92847 | 11.46914 | 29251 ft | 414 kts | 14° |
| 2026-05-05 12:48 | 53.95540 | 11.48605 | 28903 ft | 410 kts | 14° |
| 2026-05-05 12:48 | 53.98202 | 11.50278 | 28498 ft | 407 kts | 15° |
| 2026-05-05 12:48 | 54.00849 | 11.51945 | 28119 ft | 404 kts | 15° |
| 2026-05-05 12:49 | 54.03463 | 11.53592 | 27731 ft | 400 kts | 15° |
| 2026-05-05 12:49 | 54.06059 | 11.55231 | 27366 ft | 397 kts | 15° |
| 2026-05-05 12:49 | 54.08639 | 11.56861 | 27000 ft | 394 kts | 15° |
| 2026-05-05 12:49 | 54.11202 | 11.58482 | 26622 ft | 391 kts | 14° |
| 2026-05-05 12:50 | 54.13750 | 11.60096 | 26250 ft | 389 kts | 14° |
| 2026-05-05 12:50 | 54.16245 | 11.61677 | 25891 ft | 386 kts | 14° |
| 2026-05-05 12:50 | 54.18753 | 11.63270 | 25536 ft | 384 kts | 14° |
| 2026-05-05 12:50 | 54.21250 | 11.64857 | 25200 ft | 382 kts | 15° |
| 2026-05-05 12:51 | 54.23730 | 11.66436 | 24835 ft | 380 kts | 15° |
| 2026-05-05 12:51 | 54.26203 | 11.68013 | 24476 ft | 378 kts | 15° |
| 2026-05-05 12:51 | 54.28662 | 11.69582 | 24123 ft | 376 kts | 15° |
| 2026-05-05 12:51 | 54.31114 | 11.71150 | 23768 ft | 375 kts | 15° |
| 2026-05-05 12:52 | 54.33552 | 11.72710 | 23395 ft | 373 kts | 15° |
| 2026-05-05 12:52 | 54.35979 | 11.74265 | 22986 ft | 372 kts | 15° |
| 2026-05-05 12:52 | 54.38392 | 11.75814 | 22608 ft | 369 kts | 15° |
| 2026-05-05 12:52 | 54.40787 | 11.77352 | 22256 ft | 366 kts | 15° |
| 2026-05-05 12:53 | 54.43164 | 11.78882 | 21899 ft | 364 kts | 15° |
| 2026-05-05 12:53 | 54.45516 | 11.80431 | 21588 ft | 361 kts | 18° |
| 2026-05-05 12:53 | 54.47808 | 11.82165 | 21284 ft | 358 kts | 20° |
| 2026-05-05 12:53 | 54.50063 | 11.83968 | 20925 ft | 357 kts | 21° |
| 2026-05-05 12:54 | 54.54533 | 11.87555 | 20246 ft | 352 kts | 21° |
| 2026-05-05 12:54 | 54.56751 | 11.89313 | 19910 ft | 350 kts | 20° |
| 2026-05-05 12:54 | 54.58959 | 11.91056 | 19555 ft | 349 kts | 20° |
| 2026-05-05 12:55 | 54.61158 | 11.92793 | 19230 ft | 347 kts | 21° |
| 2026-05-05 12:55 | 54.63290 | 11.94764 | 18894 ft | 349 kts | 28° |
| 2026-05-05 12:55 | 54.65324 | 11.97055 | 18576 ft | 348 kts | 31° |
| 2026-05-05 12:55 | 54.67319 | 11.99428 | 18259 ft | 348 kts | 31° |
| 2026-05-05 12:56 | 54.69304 | 12.01805 | 17884 ft | 346 kts | 31° |
| 2026-05-05 12:56 | 54.71278 | 12.04150 | 17367 ft | 349 kts | 31° |
| 2026-05-05 12:56 | 54.73310 | 12.06539 | 16711 ft | 357 kts | 31° |
| 2026-05-05 12:56 | 54.75386 | 12.08964 | 16079 ft | 363 kts | 31° |
| 2026-05-05 12:57 | 54.77496 | 12.11423 | 15449 ft | 368 kts | 31° |
| 2026-05-05 12:57 | 54.79635 | 12.13912 | 14843 ft | 372 kts | 31° |
| 2026-05-05 12:57 | 54.81795 | 12.16426 | 14248 ft | 375 kts | 31° |
| 2026-05-05 12:57 | 54.83969 | 12.18961 | 13641 ft | 378 kts | 31° |
| 2026-05-05 12:58 | 54.86161 | 12.21518 | 12974 ft | 380 kts | 31° |
| 2026-05-05 12:58 | 54.88355 | 12.24082 | 12325 ft | 382 kts | 31° |
| 2026-05-05 12:58 | 54.90564 | 12.26666 | 11699 ft | 382 kts | 31° |
| 2026-05-05 12:58 | 54.92744 | 12.29219 | 11079 ft | 382 kts | 31° |
| 2026-05-05 12:59 | 54.94946 | 12.31801 | 10464 ft | 382 kts | 31° |
| 2026-05-05 12:59 | 54.97148 | 12.34387 | 9864 ft | 381 kts | 31° |
| 2026-05-05 12:59 | 54.99340 | 12.36964 | 9214 ft | 380 kts | 32° |
| 2026-05-05 13:00 | 55.03710 | 12.42080 | 7912 ft | 376 kts | 32° |
| 2026-05-05 13:00 | 55.05880 | 12.44610 | 7276 ft | 373 kts | 32° |
| 2026-05-05 13:01 | 55.12159 | 12.48796 | 5581 ft | 359 kts | 2° |
| 2026-05-05 13:01 | 55.14606 | 12.48785 | 5149 ft | 350 kts | 357° |
| 2026-05-05 13:01 | 55.16979 | 12.48697 | 5006 ft | 333 kts | 358° |
| 2026-05-05 13:01 | 55.19235 | 12.48643 | 4943 ft | 315 kts | 358° |
| 2026-05-05 13:02 | 55.21368 | 12.48603 | 4916 ft | 299 kts | 358° |
| 2026-05-05 13:02 | 55.23405 | 12.48569 | 4623 ft | 286 kts | 359° |
| 2026-05-05 13:02 | 55.25342 | 12.48540 | 4355 ft | 272 kts | 359° |
| 2026-05-05 13:02 | 55.27192 | 12.48512 | 4077 ft | 259 kts | 359° |
| 2026-05-05 13:03 | 55.28960 | 12.48486 | 3809 ft | 249 kts | 359° |
| 2026-05-05 13:03 | 55.30660 | 12.48461 | 3544 ft | 240 kts | 359° |
| 2026-05-05 13:03 | 55.32297 | 12.48437 | 3282 ft | 231 kts | 359° |
| 2026-05-05 13:03 | 55.33880 | 12.48414 | 3051 ft | 222 kts | 359° |
| 2026-05-05 13:04 | 55.35369 | 12.48393 | 2996 ft | 206 kts | 359° |
| 2026-05-05 13:04 | 55.36755 | 12.48373 | 2998 ft | 197 kts | 359° |
| 2026-05-05 13:04 | 55.38117 | 12.48256 | 3001 ft | 196 kts | 346° |
| 2026-05-05 13:04 | 55.39333 | 12.47289 | 3033 ft | 187 kts | 334° |
| 2026-05-05 13:05 | 55.40465 | 12.46318 | 3009 ft | 174 kts | 335° |
| 2026-05-05 13:05 | 55.41519 | 12.45437 | 3000 ft | 161 kts | 335° |
| 2026-05-05 13:05 | 55.42516 | 12.44604 | 3017 ft | 158 kts | 336° |
| 2026-05-05 13:05 | 55.43514 | 12.43771 | 3011 ft | 160 kts | 336° |
| 2026-05-05 13:06 | 55.44519 | 12.42931 | 3019 ft | 160 kts | 336° |
| 2026-05-05 13:06 | 55.45531 | 12.42087 | 3021 ft | 160 kts | 336° |
| 2026-05-05 13:06 | 55.46526 | 12.41838 | 2975 ft | 144 kts | 22° |
| 2026-05-05 13:06 | 55.47306 | 12.42960 | 3040 ft | 150 kts | 37° |
| 2026-05-05 13:07 | 55.48171 | 12.43961 | 3035 ft | 149 kts | 32° |
| 2026-05-05 13:07 | 55.49019 | 12.45031 | 3018 ft | 150 kts | 32° |
| 2026-05-05 13:07 | 55.49852 | 12.46038 | 3036 ft | 142 kts | 33° |
| 2026-05-05 13:07 | 55.50619 | 12.47076 | 3001 ft | 135 kts | 36° |
| 2026-05-05 13:08 | 55.51348 | 12.48155 | 3020 ft | 139 kts | 38° |
| 2026-05-05 13:08 | 55.52085 | 12.49279 | 2947 ft | 144 kts | 38° |
| 2026-05-05 13:08 | 55.52847 | 12.50458 | 2678 ft | 144 kts | 38° |
| 2026-05-05 13:08 | 55.53597 | 12.51603 | 2308 ft | 141 kts | 38° |
| 2026-05-05 13:09 | 55.54337 | 12.52727 | 1883 ft | 144 kts | 38° |